Time;durP1;ratioP1;P1;durP2;ratioP2;P2;SDS_P1;SDS_P2;PMS_P1;PMS_P2;Temp;Humidity;BMP_temperature;BMP_pressure;BME280_temperature;BME280_humidity;BME280_pressure;Samples;Min_cycle;Max_cycle;Signal;HPM_P1;HPM_P2
2022/07/18 00:01:11;;;;;;;3.17;3.07;;;19.40;99.90;;;;;;5036185;28;20271;-53
2022/07/18 00:03:38;;;;;;;4.43;3.43;;;19.40;99.90;;;;;;5035136;28;20623;-52
2022/07/18 00:06:05;;;;;;;3.40;3.20;;;19.30;99.90;;;;;;5031369;28;20217;-53
2022/07/18 00:08:32;;;;;;;3.30;3.20;;;19.30;99.90;;;;;;5037624;28;20202;-52
2022/07/18 00:10:59;;;;;;;3.10;3.00;;;19.30;99.90;;;;;;5041413;28;20253;-53
2022/07/18 00:13:28;;;;;;;5.30;3.67;;;19.20;99.90;;;;;;5038458;28;20210;-52
2022/07/18 00:15:54;;;;;;;3.80;3.63;;;19.20;99.90;;;;;;5040176;28;20264;-52
2022/07/18 00:18:21;;;;;;;2.97;2.87;;;19.20;99.90;;;;;;5034119;28;20195;-52
2022/07/18 00:20:48;;;;;;;3.40;3.30;;;19.30;99.90;;;;;;5040676;28;20202;-52
2022/07/18 00:23:15;;;;;;;3.50;3.20;;;19.30;99.90;;;;;;5034494;28;20283;-53
2022/07/18 00:25:42;;;;;;;4.40;3.63;;;19.40;99.90;;;;;;5043056;28;20225;-53
2022/07/18 00:28:11;;;;;;;3.70;3.43;;;19.30;99.90;;;;;;5032971;28;20223;-52
2022/07/18 00:30:40;;;;;;;3.57;3.37;;;19.20;99.90;;;;;;5032052;28;20210;-53
2022/07/18 00:33:07;;;;;;;3.43;3.33;;;19.10;99.90;;;;;;5038720;28;20233;-53
2022/07/18 00:35:34;;;;;;;3.90;3.70;;;19.00;99.90;;;;;;5038739;28;20689;-52
2022/07/18 00:38:02;;;;;;;4.23;3.93;;;19.00;99.90;;;;;;5030046;28;20198;-53
2022/07/18 00:40:29;;;;;;;4.43;4.13;;;18.90;99.90;;;;;;5029453;28;20297;-52
2022/07/18 00:42:56;;;;;;;6.60;5.17;;;18.90;99.90;;;;;;5026629;28;20202;-53
2022/07/18 00:45:23;;;;;;;4.87;4.67;;;18.80;99.90;;;;;;5038823;28;20256;-53
2022/07/18 00:47:51;;;;;;;6.53;4.77;;;18.80;99.90;;;;;;5036011;28;20258;-53
2022/07/18 00:50:19;;;;;;;4.40;4.20;;;18.70;99.90;;;;;;5042819;28;20202;-52
2022/07/18 00:52:46;;;;;;;4.43;4.13;;;18.70;99.90;;;;;;5038319;28;20256;-53
2022/07/18 00:55:14;;;;;;;3.70;3.47;;;18.70;99.90;;;;;;5027776;28;20214;-53
2022/07/18 00:57:42;;;;;;;3.63;3.53;;;18.70;99.90;;;;;;5037713;28;20226;-52
2022/07/18 01:02:58;;;;;;;4.40;4.03;;;18.60;99.90;;;;;;5035763;28;20279;-52
2022/07/18 01:05:26;;;;;;;4.80;4.33;;;18.50;99.90;;;;;;5035737;28;20234;-53
2022/07/18 01:07:53;;;;;;;3.60;3.43;;;18.50;99.90;;;;;;5029342;28;20238;-52
2022/07/18 01:10:20;;;;;;;3.80;3.60;;;18.40;99.90;;;;;;5038754;28;20202;-53
2022/07/18 01:12:47;;;;;;;3.30;3.20;;;18.40;99.90;;;;;;5043268;28;20201;-52
2022/07/18 01:15:14;;;;;;;3.93;3.70;;;18.40;99.90;;;;;;5038994;28;20228;-52
2022/07/18 01:17:41;;;;;;;4.23;3.40;;;18.40;99.90;;;;;;5037454;28;20198;-52
2022/07/18 01:20:28;;;;;;;3.50;3.40;;;18.40;99.90;;;;;;5028250;28;20237;-52
2022/07/18 01:22:55;;;;;;;3.03;2.93;;;18.30;99.90;;;;;;5025763;28;20202;-53
2022/07/18 01:25:23;;;;;;;3.30;3.10;;;18.30;99.90;;;;;;5033305;28;20218;-52
2022/07/18 01:27:50;;;;;;;3.07;2.90;;;18.30;99.90;;;;;;5038148;28;20260;-53
2022/07/18 01:30:17;;;;;;;2.80;2.70;;;18.30;99.90;;;;;;5041466;28;20228;-52
2022/07/18 01:32:44;;;;;;;3.30;3.20;;;18.30;99.90;;;;;;5027082;28;20280;-53
2022/07/18 01:35:11;;;;;;;3.23;3.03;;;18.30;99.90;;;;;;5039395;28;20332;-52
2022/07/18 01:37:40;;;;;;;3.80;3.60;;;18.30;99.90;;;;;;5030579;28;20256;-53
2022/07/18 01:40:09;;;;;;;3.97;3.77;;;18.40;99.90;;;;;;5027210;28;20251;-52
2022/07/18 01:42:36;;;;;;;4.33;4.00;;;18.50;99.90;;;;;;5022026;28;20202;-52
2022/07/18 01:45:03;;;;;;;3.60;3.30;;;18.50;99.90;;;;;;5033222;28;20234;-52
2022/07/18 01:47:30;;;;;;;4.30;3.90;;;18.50;99.90;;;;;;5032876;28;20221;-53
2022/07/18 01:49:57;;;;;;;3.83;3.70;;;18.50;99.90;;;;;;5039873;28;20226;-52
2022/07/18 01:52:24;;;;;;;4.10;3.77;;;18.40;99.90;;;;;;5038075;28;20657;-52
2022/07/18 01:54:52;;;;;;;5.40;3.90;;;18.40;99.90;;;;;;5034923;28;20234;-52
2022/07/18 01:57:19;;;;;;;3.60;3.30;;;18.40;99.90;;;;;;5024574;28;20215;-53
2022/07/18 01:59:46;;;;;;;4.37;4.03;;;18.40;99.90;;;;;;5030095;28;20554;-53
2022/07/18 02:02:13;;;;;;;4.00;3.90;;;18.40;99.90;;;;;;5034206;28;20268;-52
2022/07/18 02:07:24;;;;;;;4.20;3.90;;;18.30;99.90;;;;;;5028674;28;20689;-52
2022/07/18 02:09:52;;;;;;;3.87;3.67;;;18.20;99.90;;;;;;5024917;28;20199;-52
2022/07/18 02:12:19;;;;;;;4.10;3.90;;;18.30;99.90;;;;;;5042624;28;20238;-53
2022/07/18 02:14:46;;;;;;;4.30;4.10;;;18.20;99.90;;;;;;5044359;28;20209;-53
2022/07/18 02:17:14;;;;;;;4.57;4.37;;;18.00;99.90;;;;;;5026992;28;20218;-52
2022/07/18 02:19:41;;;;;;;5.47;4.10;;;17.90;99.90;;;;;;5027892;28;20681;-52
2022/07/18 02:22:08;;;;;;;4.53;4.30;;;17.80;99.90;;;;;;5037608;28;20205;-52
2022/07/18 02:24:35;;;;;;;4.20;4.10;;;17.70;99.90;;;;;;5040776;28;20198;-53
2022/07/18 02:27:03;;;;;;;4.50;4.30;;;17.80;99.90;;;;;;5039978;28;20590;-52
2022/07/18 02:29:30;;;;;;;4.90;4.70;;;17.80;99.90;;;;;;5030835;28;20206;-53
2022/07/18 02:31:57;;;;;;;4.10;3.90;;;17.70;99.90;;;;;;5028704;28;20620;-53
2022/07/18 02:34:24;;;;;;;4.47;4.27;;;17.70;99.90;;;;;;5028101;28;20253;-53
2022/07/18 02:36:52;;;;;;;4.27;4.07;;;17.60;99.90;;;;;;5037929;28;20275;-52
2022/07/18 02:39:19;;;;;;;4.07;3.87;;;17.50;99.90;;;;;;5035895;28;20252;-53
2022/07/18 02:41:46;;;;;;;4.53;4.33;;;17.50;99.90;;;;;;5039662;28;20695;-52
2022/07/18 02:44:15;;;;;;;4.00;3.80;;;17.40;99.90;;;;;;5034773;28;20300;-52
2022/07/18 02:46:42;;;;;;;4.83;4.43;;;17.40;99.90;;;;;;5031675;28;20304;-52
2022/07/18 02:49:09;;;;;;;6.13;4.87;;;17.30;99.90;;;;;;5030954;28;20618;-53
2022/07/18 02:51:36;;;;;;;5.17;4.73;;;17.30;99.90;;;;;;5039190;28;20611;-52
2022/07/18 02:54:04;;;;;;;4.73;4.53;;;17.20;99.90;;;;;;5042004;28;20202;-53
2022/07/18 02:56:31;;;;;;;3.60;3.50;;;17.20;99.90;;;;;;5040894;28;20775;-53
2022/07/18 02:58:57;;;;;;;3.63;3.43;;;17.10;99.90;;;;;;5030788;28;20198;-53
2022/07/18 03:01:26;;;;;;;4.80;4.60;;;17.10;99.90;;;;;;5037389;28;20209;-52
2022/07/18 03:03:53;;;;;;;5.00;4.77;;;17.20;99.90;;;;;;5042763;28;20228;-51
2022/07/18 03:06:20;;;;;;;4.43;4.23;;;17.10;99.90;;;;;;5040328;28;20250;-52
2022/07/18 03:08:47;;;;;;;4.93;4.53;;;17.10;99.90;;;;;;5042397;28;20229;-52
2022/07/18 03:11:14;;;;;;;4.93;4.40;;;17.10;99.90;;;;;;5045548;28;20225;-54
2022/07/18 03:13:40;;;;;;;4.30;4.20;;;17.10;99.90;;;;;;5039741;28;20198;-53
2022/07/18 03:16:08;;;;;;;4.03;3.93;;;17.10;99.90;;;;;;5031876;28;20267;-52
2022/07/18 03:18:36;;;;;;;5.00;4.67;;;17.10;99.90;;;;;;5037371;28;20251;-52
2022/07/18 03:21:03;;;;;;;4.80;4.60;;;17.10;99.90;;;;;;5026111;28;20253;-52
2022/07/18 03:23:30;;;;;;;5.73;5.33;;;17.10;99.90;;;;;;5037469;28;20221;-52
2022/07/18 03:25:57;;;;;;;6.43;5.13;;;17.20;99.90;;;;;;5028731;28;20260;-53
2022/07/18 03:28:24;;;;;;;4.90;4.80;;;17.20;99.90;;;;;;5043737;28;20640;-53
2022/07/18 03:30:51;;;;;;;4.67;4.47;;;17.20;99.90;;;;;;5040714;28;20202;-52
2022/07/18 03:33:18;;;;;;;6.17;5.83;;;17.30;99.90;;;;;;5037316;28;20199;-52
2022/07/18 03:35:47;;;;;;;4.90;4.60;;;17.40;99.90;;;;;;5028494;28;20222;-52
2022/07/18 03:38:14;;;;;;;5.40;4.93;;;17.40;99.90;;;;;;5029259;28;20203;-53
2022/07/18 03:40:41;;;;;;;5.23;4.93;;;17.50;99.90;;;;;;5038485;28;20283;-52
2022/07/18 03:43:08;;;;;;;3.87;3.67;;;17.50;99.90;;;;;;5030094;28;20202;-52
2022/07/18 03:45:34;;;;;;;5.23;4.93;;;17.40;99.90;;;;;;5037476;28;20215;-53
2022/07/18 03:48:01;;;;;;;5.03;4.63;;;17.40;99.90;;;;;;5037933;28;20230;-52
2022/07/18 03:50:28;;;;;;;5.23;5.03;;;17.30;99.90;;;;;;5034269;28;20245;-52
2022/07/18 03:52:57;;;;;;;5.63;5.33;;;17.30;99.90;;;;;;5037420;28;20282;-53
2022/07/18 03:55:24;;;;;;;5.60;5.23;;;17.20;99.90;;;;;;5034985;28;20640;-53
2022/07/18 03:57:51;;;;;;;5.10;4.90;;;17.20;99.90;;;;;;5034103;28;20574;-53
2022/07/18 04:00:18;;;;;;;5.47;5.20;;;17.20;99.90;;;;;;5040445;28;20260;-52
2022/07/18 04:02:47;;;;;;;5.83;5.47;;;17.10;99.90;;;;;;5028233;28;20199;-52
2022/07/18 04:05:16;;;;;;;5.73;5.33;;;17.10;99.90;;;;;;5028694;28;20285;-52
2022/07/18 04:07:43;;;;;;;5.70;5.40;;;17.10;99.90;;;;;;5033874;28;20280;-52
2022/07/18 04:10:13;;;;;;;5.90;5.60;;;17.10;99.90;;;;;;5028281;28;20206;-52
2022/07/18 04:12:46;;;;;;;4.73;4.53;;;17.00;99.90;;;;;;5030715;28;20604;-52
2022/07/18 04:15:13;;;;;;;8.07;5.87;;;17.00;99.90;;;;;;5029882;28;20194;-52
2022/07/18 04:17:40;;;;;;;5.63;5.23;;;17.00;99.90;;;;;;5029280;28;20207;-52
2022/07/18 04:20:09;;;;;;;5.60;5.17;;;17.10;99.90;;;;;;5028670;28;20619;-53
2022/07/18 04:22:49;;;;;;;6.33;5.10;;;17.10;99.90;;;;;;5030474;28;20218;-53
2022/07/18 04:25:18;;;;;;;6.13;5.60;;;17.20;99.90;;;;;;5028240;28;20246;-52
2022/07/18 04:27:46;;;;;;;5.50;5.13;;;17.30;99.90;;;;;;5033577;28;20280;-52
2022/07/18 04:30:15;;;;;;;5.17;4.97;;;17.40;99.90;;;;;;5032965;28;20304;-52
2022/07/18 04:32:42;;;;;;;5.27;4.87;;;17.60;99.90;;;;;;5025352;28;20198;-52
2022/07/18 04:35:09;;;;;;;6.53;5.90;;;17.60;99.90;;;;;;5025681;28;20672;-52
2022/07/18 04:37:37;;;;;;;6.07;5.77;;;17.70;99.90;;;;;;5028433;28;20229;-52
2022/07/18 04:40:04;;;;;;;6.10;5.80;;;17.70;99.90;;;;;;5033753;28;20252;-52
2022/07/18 04:42:33;;;;;;;6.93;6.33;;;17.80;99.90;;;;;;5033010;28;20291;-52
2022/07/18 04:45:00;;;;;;;7.30;4.70;;;17.70;99.90;;;;;;5023656;28;20226;-52
2022/07/18 04:47:27;;;;;;;6.83;6.33;;;17.90;99.90;;;;;;5027053;28;20356;-52
2022/07/18 04:49:55;;;;;;;6.77;6.20;;;18.00;99.90;;;;;;5026203;28;20245;-53
2022/07/18 04:52:22;;;;;;;5.40;5.10;;;18.00;99.90;;;;;;5028483;28;20211;-52
2022/07/18 04:54:50;;;;;;;5.47;5.10;;;18.10;99.90;;;;;;5049920;22;20219;-52
2022/07/18 04:57:17;;;;;;;5.57;5.27;;;18.20;99.90;;;;;;5046158;28;20763;-50
2022/07/18 04:59:46;;;;;;;5.57;5.27;;;18.30;99.90;;;;;;5046794;28;20225;-49
2022/07/18 05:02:13;;;;;;;5.30;5.03;;;18.50;99.90;;;;;;5047930;28;20210;-49
2022/07/18 05:04:42;;;;;;;5.03;4.80;;;18.60;99.90;;;;;;5050676;28;20201;-49
2022/07/18 05:07:09;;;;;;;5.37;5.17;;;18.90;99.90;;;;;;5046997;28;20201;-49
2022/07/18 05:09:36;;;;;;;4.93;4.63;;;19.20;99.90;;;;;;5045228;28;20250;-49
2022/07/18 05:12:03;;;;;;;4.73;4.23;;;19.70;99.90;;;;;;5048736;28;20202;-49
2022/07/18 05:14:30;;;;;;;5.33;5.03;;;20.60;99.90;;;;;;5044564;28;20202;-49
2022/07/18 05:16:59;;;;;;;5.50;4.90;;;21.50;99.90;;;;;;5049267;28;20210;-48
2022/07/18 05:19:26;;;;;;;4.13;3.93;;;22.30;99.90;;;;;;5049735;28;20228;-49
2022/07/18 05:21:53;;;;;;;3.70;3.50;;;23.20;99.90;;;;;;5049176;28;20271;-49
2022/07/18 05:24:20;;;;;;;3.90;3.70;;;24.00;99.90;;;;;;5049297;28;20205;-49
2022/07/18 05:26:47;;;;;;;4.23;3.90;;;24.30;99.90;;;;;;5046941;28;20307;-50
2022/07/18 05:29:17;;;;;;;7.20;4.00;;;24.70;99.90;;;;;;5048291;28;20224;-50
2022/07/18 05:31:44;;;;;;;3.77;3.57;;;25.10;99.90;;;;;;5048494;28;20205;-50
2022/07/18 05:34:12;;;;;;;4.10;3.80;;;25.50;99.90;;;;;;5046876;28;20275;-50
2022/07/18 05:36:39;;;;;;;3.63;3.53;;;26.10;99.90;;;;;;5049731;28;20620;-50
2022/07/18 05:39:10;;;;;;;3.60;3.33;;;26.60;99.60;;;;;;5044584;28;20217;-50
2022/07/18 05:41:37;;;;;;;4.00;3.70;;;26.90;98.80;;;;;;5050149;28;20229;-50
2022/07/18 05:44:04;;;;;;;4.00;3.80;;;27.30;98.40;;;;;;5051326;28;20190;-50
2022/07/18 05:46:31;;;;;;;3.50;3.30;;;27.30;97.90;;;;;;5047781;28;20240;-50
2022/07/18 05:48:58;;;;;;;3.78;3.58;;;28.20;97.20;;;;;;5048300;28;20218;-50
2022/07/18 05:51:27;;;;;;;3.85;3.67;;;28.60;96.30;;;;;;5048624;28;20718;-50
2022/07/18 05:53:54;;;;;;;3.75;3.50;;;29.10;95.80;;;;;;5048861;28;20263;-50
2022/07/18 05:56:21;;;;;;;3.10;3.10;;;29.20;94.80;;;;;;5050254;28;20322;-50
2022/07/18 05:58:48;;;;;;;5.28;3.45;;;29.20;94.60;;;;;;5044447;28;20247;-50
2022/07/18 06:01:19;;;;;;;4.53;4.28;;;29.30;93.10;;;;;;5046116;28;20209;-50
2022/07/18 06:03:47;;;;;;;3.95;3.42;;;29.30;93.40;;;;;;5046900;28;20206;-50
2022/07/18 06:06:14;;;;;;;4.60;4.05;;;29.50;93.10;;;;;;5036481;28;20233;-50
2022/07/18 06:08:42;;;;;;;3.90;3.70;;;30.00;93.30;;;;;;5033563;28;20246;-50
2022/07/18 06:11:10;;;;;;;5.40;3.75;;;30.20;91.70;;;;;;5031286;28;20682;-50
2022/07/18 06:13:38;;;;;;;3.50;3.30;;;30.50;92.00;;;;;;5040559;28;20626;-50
2022/07/18 06:16:06;;;;;;;3.75;3.47;;;30.90;92.10;;;;;;5038572;28;20222;-50
2022/07/18 06:18:34;;;;;;;3.80;3.65;;;31.10;90.70;;;;;;5041546;28;20198;-50
2022/07/18 06:21:01;;;;;;;4.05;3.75;;;31.30;90.50;;;;;;5045459;28;20198;-50
2022/07/18 06:23:29;;;;;;;5.20;3.63;;;31.70;90.50;;;;;;5038340;28;20206;-50
2022/07/18 06:25:57;;;;;;;6.13;3.65;;;32.10;89.20;;;;;;5042852;28;20229;-50
2022/07/18 06:28:25;;;;;;;4.78;3.80;;;31.80;89.90;;;;;;5048836;28;20244;-50
2022/07/18 06:30:52;;;;;;;5.13;4.10;;;31.80;90.00;;;;;;5034482;28;20704;-50
2022/07/18 06:33:19;;;;;;;4.78;4.38;;;31.90;88.20;;;;;;5036144;28;20213;-50
2022/07/18 06:35:47;;;;;;;5.47;3.75;;;31.60;89.60;;;;;;5052192;28;20256;-50
2022/07/18 06:38:14;;;;;;;3.90;3.53;;;31.50;90.10;;;;;;5050456;28;20209;-50
2022/07/18 06:40:41;;;;;;;4.22;3.80;;;31.80;87.70;;;;;;5043291;28;20214;-49
2022/07/18 06:43:10;;;;;;;3.10;3.10;;;32.10;86.50;;;;;;5041168;28;20251;-50
2022/07/18 06:45:37;;;;;;;4.75;4.35;;;32.10;86.60;;;;;;5044503;28;20272;-50
2022/07/18 06:48:04;;;;;;;3.85;3.63;;;32.10;88.40;;;;;;5039695;28;20208;-49
2022/07/18 06:50:31;;;;;;;4.80;4.32;;;32.10;87.80;;;;;;5041490;28;20206;-50
2022/07/18 06:52:58;;;;;;;5.07;4.88;;;32.20;88.50;;;;;;5041149;28;20202;-50
2022/07/18 06:55:25;;;;;;;5.45;4.22;;;32.40;87.10;;;;;;5041408;28;20281;-50
2022/07/18 06:57:52;;;;;;;3.60;3.40;;;32.30;86.10;;;;;;5043920;28;20215;-50
2022/07/18 07:00:20;;;;;;;4.88;3.45;;;31.50;88.10;;;;;;5038364;28;20203;-50
2022/07/18 07:02:49;;;;;;;3.88;3.67;;;31.80;88.70;;;;;;5042084;28;20199;-50
2022/07/18 07:05:18;;;;;;;4.22;3.42;;;31.80;86.90;;;;;;5042822;28;20218;-50
2022/07/18 07:07:46;;;;;;;4.07;3.70;;;31.80;88.60;;;;;;5043152;28;20198;-50
2022/07/18 07:10:13;;;;;;;4.60;4.30;;;32.20;88.90;;;;;;5041777;28;20237;-50
2022/07/18 07:12:42;;;;;;;4.78;4.45;;;31.90;86.90;;;;;;5042581;28;20309;-50
2022/07/18 07:15:10;;;;;;;3.78;3.67;;;32.10;90.00;;;;;;5042965;28;20719;-50
2022/07/18 07:17:38;;;;;;;4.40;4.07;;;32.10;86.80;;;;;;5042803;28;20225;-50
2022/07/18 07:20:08;;;;;;;4.40;3.92;;;31.80;86.50;;;;;;5045330;28;20322;-51
2022/07/18 07:22:42;;;;;;;4.22;3.95;;;32.20;86.90;;;;;;5037984;28;20213;-50
2022/07/18 07:25:10;;;;;;;4.63;4.22;;;32.50;86.00;;;;;;5044385;28;20217;-51
2022/07/18 07:27:37;;;;;;;4.07;3.88;;;32.30;85.90;;;;;;5043524;28;20203;-51
2022/07/18 07:30:05;;;;;;;4.68;4.28;;;32.90;85.60;;;;;;5042132;28;20230;-50
2022/07/18 07:32:35;;;;;;;3.97;3.72;;;33.40;87.10;;;;;;5040668;28;20293;-50
2022/07/18 07:35:06;;;;;;;3.65;3.45;;;32.80;83.60;;;;;;5046354;28;20221;-51
2022/07/18 07:37:33;;;;;;;3.75;3.55;;;33.40;87.10;;;;;;5053905;28;20544;-51
2022/07/18 07:40:00;;;;;;;4.10;3.90;;;33.80;83.70;;;;;;5052635;28;20190;-51
2022/07/18 07:42:27;;;;;;;4.50;3.28;;;33.40;84.10;;;;;;5049565;28;20667;-50
2022/07/18 07:44:54;;;;;;;4.20;3.90;;;33.30;87.10;;;;;;5050512;28;20248;-50
2022/07/18 07:47:21;;;;;;;4.07;3.78;;;33.40;84.30;;;;;;5051169;28;20263;-50
2022/07/18 07:49:48;;;;;;;4.32;4.03;;;33.70;83.40;;;;;;5052707;28;20264;-50
2022/07/18 07:52:17;;;;;;;4.22;4.03;;;33.90;86.10;;;;;;5042382;28;20206;-51
2022/07/18 07:54:45;;;;;;;3.80;3.70;;;33.30;85.00;;;;;;5036382;28;20203;-51
2022/07/18 07:57:12;;;;;;;3.55;3.28;;;33.20;84.50;;;;;;5035744;28;20195;-50
2022/07/18 07:59:39;;;;;;;3.22;3.13;;;33.40;80.30;;;;;;5051499;28;20603;-50
2022/07/18 08:02:06;;;;;;;4.47;4.05;;;33.50;81.00;;;;;;5042873;28;20230;-51
2022/07/18 08:04:33;;;;;;;3.72;3.65;;;34.00;82.30;;;;;;5040947;28;20195;-50
2022/07/18 08:07:00;;;;;;;4.57;4.38;;;34.30;81.80;;;;;;5049158;28;20240;-50
2022/07/18 08:09:29;;;;;;;4.78;4.15;;;34.60;78.10;;;;;;5032475;28;20214;-50
2022/07/18 08:11:56;;;;;;;3.67;3.58;;;34.70;80.90;;;;;;5048942;28;20252;-51
2022/07/18 08:14:25;;;;;;;4.45;4.07;;;35.00;83.20;;;;;;5050879;28;20694;-50
2022/07/18 08:16:54;;;;;;;4.65;3.72;;;34.80;78.30;;;;;;5035136;28;20280;-50
2022/07/18 08:19:21;;;;;;;3.03;2.92;;;34.70;79.60;;;;;;5034787;28;20218;-50
2022/07/18 08:21:48;;;;;;;6.07;3.95;;;34.40;82.30;;;;;;5031628;28;20221;-51
2022/07/18 08:24:15;;;;;;;5.40;3.47;;;34.60;82.00;;;;;;5050423;28;20202;-50
2022/07/18 08:26:44;;;;;;;3.65;3.45;;;34.20;84.10;;;;;;5046761;28;20222;-50
2022/07/18 08:29:14;;;;;;;3.15;2.85;;;34.40;82.30;;;;;;5035572;28;20658;-51
2022/07/18 08:31:41;;;;;;;3.85;3.75;;;34.70;83.70;;;;;;5047866;28;20229;-51
2022/07/18 08:34:08;;;;;;;3.78;3.58;;;34.80;79.80;;;;;;5040320;28;20459;-51
2022/07/18 08:36:35;;;;;;;3.42;3.33;;;34.70;76.10;;;;;;5042424;28;20252;-51
2022/07/18 08:39:02;;;;;;;3.70;3.60;;;35.10;82.10;;;;;;5039790;28;20240;-51
2022/07/18 08:41:29;;;;;;;4.95;4.43;;;35.20;81.30;;;;;;5040698;28;20210;-51
2022/07/18 08:43:59;;;;;;;6.55;3.80;;;35.50;78.90;;;;;;5036254;28;20305;-51
2022/07/18 08:46:27;;;;;;;4.22;4.03;;;35.20;76.80;;;;;;5039898;28;20275;-51
2022/07/18 08:48:55;;;;;;;3.63;3.53;;;34.10;77.50;;;;;;5036340;28;20664;-51
2022/07/18 08:51:23;;;;;;;4.07;3.90;;;34.70;83.80;;;;;;5034929;28;20620;-50
2022/07/18 08:53:51;;;;;;;2.92;2.83;;;34.40;78.40;;;;;;5043931;28;20283;-51
2022/07/18 08:56:19;;;;;;;4.35;4.05;;;33.60;75.90;;;;;;5037853;28;20316;-50
2022/07/18 08:58:46;;;;;;;3.78;3.58;;;33.80;82.20;;;;;;5038018;28;20191;-50
2022/07/18 09:01:14;;;;;;;5.03;4.18;;;34.10;82.90;;;;;;5044718;28;20229;-51
2022/07/18 09:03:41;;;;;;;5.88;5.50;;;34.60;78.60;;;;;;5039244;28;20259;-50
2022/07/18 09:06:09;;;;;;;4.45;4.25;;;34.50;83.20;;;;;;5044943;28;20222;-50
2022/07/18 09:08:37;;;;;;;4.55;4.40;;;33.80;87.80;;;;;;5046650;28;20226;-53
2022/07/18 09:11:09;;;;;;;4.50;4.07;;;34.00;88.10;;;;;;5037400;28;20382;-53
2022/07/18 09:13:42;;;;;;;4.70;4.30;;;33.80;85.40;;;;;;5046537;28;20853;-53
2022/07/18 09:16:11;;;;;;;4.70;4.47;;;34.20;87.00;;;;;;5034619;28;20214;-53
2022/07/18 09:18:41;;;;;;;4.25;4.05;;;33.70;85.80;;;;;;5032810;28;20202;-53
2022/07/18 09:21:10;;;;;;;4.10;4.00;;;33.50;89.90;;;;;;5035018;28;20198;-53
2022/07/18 09:23:39;;;;;;;4.68;4.32;;;33.40;87.30;;;;;;5038462;28;20668;-53
2022/07/18 09:26:07;;;;;;;5.28;4.88;;;33.40;85.50;;;;;;5038709;28;20222;-53
2022/07/18 09:28:48;;;;;;;4.35;4.05;;;33.20;85.20;;;;;;5037743;28;20206;-53
2022/07/18 09:31:19;;;;;;;3.75;3.45;;;33.10;87.50;;;;;;5040941;28;20260;-52
2022/07/18 09:33:54;;;;;;;3.83;3.72;;;33.30;88.40;;;;;;5036781;28;20285;-53
2022/07/18 09:36:21;;;;;;;4.15;3.95;;;33.60;87.90;;;;;;5040405;28;20225;-54
2022/07/18 09:38:48;;;;;;;6.25;4.38;;;33.90;85.10;;;;;;5051490;28;20252;-53
2022/07/18 09:41:16;;;;;;;3.05;2.95;;;34.80;81.50;;;;;;5049124;28;20200;-53
2022/07/18 09:43:43;;;;;;;3.45;3.35;;;35.50;82.60;;;;;;5049606;28;20202;-53
2022/07/18 09:46:10;;;;;;;3.50;3.35;;;35.90;77.50;;;;;;5043177;28;20249;-53
2022/07/18 09:48:37;;;;;;;3.83;3.53;;;35.30;81.60;;;;;;5047018;28;20255;-53
2022/07/18 09:51:07;;;;;;;4.38;3.95;;;35.20;81.80;;;;;;5048127;28;20275;-52
2022/07/18 09:53:37;;;;;;;3.97;3.78;;;34.90;83.40;;;;;;5050835;28;20244;-53
2022/07/18 09:56:06;;;;;;;4.50;4.10;;;34.50;83.00;;;;;;5050093;28;20276;-53
2022/07/18 09:58:34;;;;;;;3.80;3.67;;;34.30;83.70;;;;;;5047508;28;20692;-52
2022/07/18 10:01:03;;;;;;;4.30;4.15;;;34.20;84.60;;;;;;5046208;28;20241;-52
2022/07/18 10:03:30;;;;;;;4.20;4.00;;;33.60;86.80;;;;;;5050916;28;20284;-50
2022/07/18 10:05:59;;;;;;;4.10;3.75;;;33.10;85.80;;;;;;5045885;28;20225;-50
2022/07/18 10:08:30;;;;;;;3.75;3.65;;;32.80;88.20;;;;;;5049515;28;20210;-51
2022/07/18 10:10:59;;;;;;;4.65;4.35;;;32.90;87.30;;;;;;5050680;28;20217;-50
2022/07/18 10:13:28;;;;;;;4.05;3.85;;;33.00;89.40;;;;;;5049269;28;20201;-50
2022/07/18 10:15:55;;;;;;;4.07;3.95;;;33.20;87.10;;;;;;5048516;28;20296;-50
2022/07/18 10:18:24;;;;;;;3.60;3.50;;;33.60;90.10;;;;;;5047064;28;20267;-50
2022/07/18 10:20:56;;;;;;;5.85;5.22;;;33.60;83.10;;;;;;5058111;28;20252;-50
2022/07/18 10:23:26;;;;;;;4.60;3.55;;;33.60;82.10;;;;;;5037379;28;20574;-49
2022/07/18 10:26:13;;;;;;;3.90;3.80;;;33.70;83.30;;;;;;5066135;28;20214;-49
2022/07/18 10:29:10;;;;;;;4.50;4.18;;;33.60;86.10;;;;;;5048227;28;20284;-50
2022/07/18 10:31:38;;;;;;;4.15;3.95;;;33.40;86.10;;;;;;5044690;28;20222;-50
2022/07/18 10:34:11;;;;;;;3.88;3.78;;;33.90;83.70;;;;;;5049784;28;20614;-50
2022/07/18 10:36:40;;;;;;;4.07;3.85;;;33.90;83.50;;;;;;5033479;28;20218;-50
2022/07/18 10:39:10;;;;;;;3.63;3.42;;;34.10;82.90;;;;;;5030350;28;20195;-50
2022/07/18 10:42:11;;;;;;;3.08;2.97;;;33.50;84.80;;;;;;5029920;28;20225;-50
2022/07/18 10:44:41;;;;;;;3.90;3.72;;;34.10;86.60;;;;;;5036295;28;20687;-50
2022/07/18 10:47:11;;;;;;;3.78;3.58;;;34.40;82.70;;;;;;5045543;28;20620;-50
2022/07/18 10:50:01;;;;;;;4.95;3.75;;;34.70;77.40;;;;;;5033982;28;20660;-50
2022/07/18 10:52:57;;;;;;;3.25;3.05;;;34.60;83.20;;;;;;5045653;28;20202;-50
2022/07/18 10:55:31;;;;;;;5.05;3.55;;;34.50;80.20;;;;;;5048759;28;20225;-50
2022/07/18 10:58:24;;;;;;;3.35;3.25;;;33.80;82.30;;;;;;5050166;28;20206;-51
2022/07/18 11:01:00;;;;;;;4.05;3.78;;;33.10;81.20;;;;;;5047212;28;20207;-51
2022/07/18 11:03:28;;;;;;;5.18;3.67;;;33.30;85.60;;;;;;5044640;28;20251;-52
2022/07/18 11:05:57;;;;;;;4.03;3.83;;;32.70;87.50;;;;;;5046791;28;20284;-52
2022/07/18 11:08:25;;;;;;;3.92;3.72;;;32.60;84.20;;;;;;5033843;28;20230;-53
2022/07/18 11:11:16;;;;;;;3.33;3.10;;;32.30;84.60;;;;;;5033788;28;20219;-52
2022/07/18 11:13:49;;;;;;;3.72;3.53;;;32.20;84.50;;;;;;5045942;28;20198;-52
2022/07/18 11:16:23;;;;;;;4.18;3.50;;;32.00;84.30;;;;;;5052117;28;20308;-52
2022/07/18 11:19:30;;;;;;;3.33;3.13;;;32.10;87.50;;;;;;5052370;28;20194;-53
2022/07/18 11:21:58;;;;;;;3.15;2.83;;;31.80;86.90;;;;;;5037054;28;20206;-54
2022/07/18 11:24:26;;;;;;;3.45;3.35;;;31.80;85.50;;;;;;5034775;28;20492;-53
2022/07/18 11:26:53;;;;;;;3.88;3.10;;;31.70;85.20;;;;;;5035559;28;20224;-53
2022/07/18 11:29:21;;;;;;;3.17;3.03;;;31.70;86.80;;;;;;5033272;28;20680;-53
2022/07/18 11:31:51;;;;;;;3.33;3.05;;;31.70;88.10;;;;;;5032548;28;20218;-53
2022/07/18 11:34:19;;;;;;;2.85;2.75;;;31.90;83.60;;;;;;5046868;28;20198;-53
2022/07/18 11:36:47;;;;;;;2.58;2.58;;;31.90;85.60;;;;;;5043263;28;20768;-53
2022/07/18 11:39:16;;;;;;;3.15;3.05;;;32.00;82.60;;;;;;5038445;28;20282;-53
2022/07/18 11:41:44;;;;;;;3.58;3.38;;;31.80;82.50;;;;;;5032979;28;20564;-53
2022/07/18 11:44:21;;;;;;;2.85;2.80;;;31.60;86.40;;;;;;5038519;28;20225;-53
2022/07/18 11:46:50;;;;;;;3.03;2.83;;;31.50;79.50;;;;;;5041641;28;20218;-53
2022/07/18 11:49:17;;;;;;;3.45;3.28;;;31.40;86.10;;;;;;5038045;28;20234;-52
2022/07/18 11:51:45;;;;;;;3.83;3.65;;;31.30;86.30;;;;;;5031789;28;20292;-53
2022/07/18 11:54:22;;;;;;;3.10;2.85;;;31.30;81.20;;;;;;5037485;28;20800;-53
2022/07/18 11:56:51;;;;;;;2.42;2.42;;;31.30;86.30;;;;;;5038269;28;20230;-54
2022/07/18 11:59:18;;;;;;;2.90;2.80;;;31.30;82.50;;;;;;5032646;28;20264;-53
2022/07/18 12:01:46;;;;;;;4.57;2.80;;;31.10;82.80;;;;;;5031815;28;20198;-53
2022/07/18 12:04:20;;;;;;;3.15;3.03;;;31.10;85.50;;;;;;5041228;28;20213;-53
2022/07/18 12:07:07;;;;;;;2.58;2.47;;;31.20;83.70;;;;;;5040412;28;20240;-53
2022/07/18 12:09:34;;;;;;;3.20;2.13;;;31.30;81.30;;;;;;5074521;22;20743;-55
2022/07/18 12:12:09;;;;;;;2.67;2.58;;;31.40;80.30;;;;;;5049412;28;20236;-52
2022/07/18 12:14:38;;;;;;;2.63;2.53;;;31.00;78.20;;;;;;5050097;28;20663;-55
2022/07/18 12:17:06;;;;;;;2.20;2.20;;;30.90;80.60;;;;;;5051058;28;20256;-55
2022/07/18 12:19:36;;;;;;;2.00;2.00;;;31.00;85.30;;;;;;5050184;28;20263;-55
2022/07/18 12:22:08;;;;;;;2.42;2.33;;;30.90;84.40;;;;;;5046608;28;20228;-55
2022/07/18 12:24:37;;;;;;;2.38;2.38;;;30.90;77.80;;;;;;5049848;28;20202;-52
2022/07/18 12:27:19;;;;;;;3.00;1.80;;;30.90;84.50;;;;;;5050778;28;20205;-52
2022/07/18 12:30:03;;;;;;;2.58;2.40;;;31.00;79.20;;;;;;5050511;28;20287;-55
2022/07/18 12:32:39;;;;;;;1.60;1.50;;;31.00;79.90;;;;;;5044144;28;20331;-54
2022/07/18 12:35:09;;;;;;;1.73;1.60;;;31.00;75.80;;;;;;5049799;28;20197;-55
2022/07/18 12:37:36;;;;;;;1.92;1.63;;;31.10;71.20;;;;;;5050770;28;20236;-55
2022/07/18 12:40:05;;;;;;;1.35;1.33;;;31.20;79.10;;;;;;5050661;28;20612;-54
2022/07/18 12:42:35;;;;;;;1.60;1.60;;;31.10;78.40;;;;;;5048956;28;20202;-54
2022/07/18 12:45:03;;;;;;;1.48;1.25;;;31.10;79.80;;;;;;5049187;28;20576;-54
2022/07/18 12:47:31;;;;;;;1.60;1.55;;;31.00;74.40;;;;;;5050168;28;20244;-54
2022/07/18 12:49:58;;;;;;;1.33;1.33;;;30.90;77.40;;;;;;5050590;28;20193;-55
2022/07/18 12:52:27;;;;;;;1.50;1.50;;;30.80;75.20;;;;;;5048927;28;20210;-53
2022/07/18 12:54:54;;;;;;;1.40;1.40;;;30.70;79.60;;;;;;5048716;28;20255;-54
2022/07/18 12:57:21;;;;;;;1.50;1.50;;;30.80;76.90;;;;;;5050284;28;20200;-54
2022/07/18 12:59:49;;;;;;;1.65;1.45;;;30.70;71.30;;;;;;5050476;28;20218;-54
2022/07/18 13:02:17;;;;;;;1.25;1.25;;;30.60;74.20;;;;;;5048267;28;20516;-54